ROMMA est une association bénévole à but non lucratif. Votre soutien est indispensable : ADHERER à ROMMA ou FAIRE un DON

Granges-lès-Beaumont - (26, Drôme)

Drôme des Collines (155 m)   Longitude: 04°58'E   Latitude: 45°03'N Station partenaire n°123
 

Détail journalier du     <<     >>

Température Precipitation Humidité Pression Vent Dir Rafale Dir. rafale Ensol.
Heure (°C) (mm) (%) (hPa) (km/h) (km/h) (min)
01:00 0.6087102300---0
02:00 -0.2091102205N0
03:00 -0.309210221---8N0
04:00 -0.709110211N6N0
05:00 -0.9092102105N0
06:00 -0.909210203N8N0
07:00 -0.809410204NNO10NNE0
08:00 -0.709410202N10N0
09:00 -0.5095102000---0
10:00 0.209510201---6N0
11:00 1.60931020010E50
12:00 2.209310203ENE13ENE10
13:00 3.9089101911E18E60
14:00 4.2089101911E18E30
15:00 4.5089101812ENE18ENE10
16:00 4.309010198ENE16E10
17:00 4.208910192ENE13ENE30
18:00 2.209310191---8ENE0
19:00 2.3094101900---0
20:00 3.4088102006N0
21:00 3.208910202N10NO0
22:00 2.509010201N10NNO0
23:00 2.6091102006N0
minuit 1.4091102006SE0

Graphique du 04-12-2019

 

Serveur OMMA